createdAt,value
2019-03-01T00:01:33.254Z,4.20
2019-03-01T00:04:59.867Z,4.40
2019-03-01T00:07:56.461Z,4.33
2019-03-01T00:10:51.754Z,4.30
2019-03-01T00:14:18.802Z,4.93
2019-03-01T00:16:59.468Z,4.40
2019-03-01T00:20:00.417Z,4.50
2019-03-01T00:23:01.957Z,4.40
2019-03-01T00:26:29.029Z,4.67
2019-03-01T00:29:19.765Z,4.87
2019-03-01T00:32:19.242Z,4.60
2019-03-01T00:35:14.039Z,4.53
2019-03-01T00:39:00.138Z,4.83
2019-03-01T00:41:56.137Z,4.43
2019-03-01T00:44:44.754Z,4.90
2019-03-01T00:47:16.273Z,4.97
2019-03-01T00:49:47.444Z,4.70
2019-03-01T00:52:18.561Z,4.60
2019-03-01T00:54:50.013Z,4.97
2019-03-01T00:57:21.457Z,4.87
2019-03-01T00:59:52.909Z,4.83
2019-03-01T01:02:24.647Z,4.77
2019-03-01T01:04:55.510Z,5.00
2019-03-01T01:07:26.962Z,4.80
2019-03-01T01:13:09.950Z,4.70
2019-03-01T01:15:19.778Z,5.00
2019-03-01T01:17:50.606Z,4.70
2019-03-01T01:20:21.718Z,4.90
2019-03-01T01:22:52.796Z,4.80
2019-03-01T01:25:24.002Z,5.13
2019-03-01T01:27:55.159Z,4.87
2019-03-01T01:30:25.515Z,5.00
2019-03-01T01:32:56.242Z,5.20
2019-03-01T01:35:30.945Z,5.00
2019-03-01T01:38:01.562Z,5.07
2019-03-01T01:40:32.835Z,4.63
2019-03-01T01:43:03.546Z,5.00
2019-03-01T01:45:33.869Z,5.17
2019-03-01T01:48:04.917Z,5.20
2019-03-01T01:50:36.488Z,5.17
2019-03-01T01:53:07.524Z,5.30
2019-03-01T01:55:38.164Z,4.70
2019-03-01T01:58:08.878Z,5.13
2019-03-01T02:00:40.150Z,5.50
2019-03-01T02:03:10.613Z,5.20
2019-03-01T02:05:40.895Z,5.10
2019-03-01T02:08:11.319Z,5.20
2019-03-01T02:10:43.202Z,5.17
2019-03-01T02:13:13.890Z,5.70
2019-03-01T02:15:45.343Z,5.13
2019-03-01T02:18:16.771Z,5.03
2019-03-01T02:20:47.638Z,5.50
2019-03-01T02:23:18.470Z,5.37
2019-03-01T02:25:49.773Z,5.40
2019-03-01T02:28:21.194Z,5.23
2019-03-01T02:30:52.516Z,5.67
2019-03-01T02:33:23.607Z,4.83
2019-03-01T02:35:54.816Z,5.43
2019-03-01T02:38:25.933Z,5.10
2019-03-01T02:40:56.582Z,4.93
2019-03-01T02:43:27.315Z,5.00
2019-03-01T02:45:57.959Z,4.97
2019-03-01T02:48:28.454Z,5.37
2019-03-01T02:50:58.958Z,5.17
2019-03-01T02:53:29.515Z,5.70
2019-03-01T02:56:00.150Z,5.23
2019-03-01T02:58:30.571Z,5.27
2019-03-01T03:01:01.338Z,5.17
2019-03-01T03:03:32.014Z,5.53
2019-03-01T03:06:33.714Z,5.13
2019-03-01T03:09:06.821Z,5.30
2019-03-01T03:11:37.875Z,5.07
2019-03-01T03:14:09.245Z,5.27
2019-03-01T03:16:40.747Z,5.20
2019-03-01T03:19:11.907Z,5.10
2019-03-01T03:21:43.343Z,5.33
2019-03-01T03:24:14.779Z,5.37
2019-03-01T03:26:48.470Z,5.20
2019-03-01T03:29:19.111Z,5.43
2019-03-01T03:31:50.088Z,5.60
2019-03-01T03:34:21.403Z,5.17
2019-03-01T03:36:52.426Z,5.70
2019-03-01T03:39:23.435Z,5.53
2019-03-01T03:41:54.334Z,5.20
2019-03-01T03:44:25.522Z,5.50
2019-03-01T03:46:57.854Z,5.60
2019-03-01T03:49:28.995Z,5.30
2019-03-01T03:52:00.750Z,5.30
2019-03-01T03:54:31.814Z,5.80
2019-03-01T03:57:03.351Z,5.20
2019-03-01T03:59:35.103Z,5.50
2019-03-01T04:02:05.941Z,5.60
2019-03-01T04:04:37.390Z,5.40
2019-03-01T04:07:08.395Z,5.50
2019-03-01T04:09:39.682Z,5.60
2019-03-01T04:12:11.319Z,5.60
2019-03-01T04:14:42.280Z,5.43
2019-03-01T04:17:13.045Z,5.30
2019-03-01T04:19:43.846Z,5.40
2019-03-01T04:22:15.100Z,5.50
2019-03-01T04:24:46.730Z,5.37
2019-03-01T04:27:17.767Z,5.37
2019-03-01T04:29:49.114Z,5.23
2019-03-01T04:32:20.594Z,5.47
2019-03-01T04:34:51.726Z,5.77
2019-03-01T04:37:22.872Z,5.60
2019-03-01T04:39:53.711Z,5.77
2019-03-01T04:42:25.157Z,5.70
2019-03-01T04:44:56.913Z,5.57
2019-03-01T04:47:28.066Z,5.43
2019-03-01T04:49:59.212Z,5.27
2019-03-01T04:52:34.959Z,5.70
2019-03-01T04:55:11.666Z,5.63
2019-03-01T04:57:42.918Z,5.10
2019-03-01T05:00:16.122Z,5.43
2019-03-01T05:02:46.929Z,5.43
2019-03-01T05:05:18.390Z,5.50
2019-03-01T05:07:49.364Z,5.47
2019-03-01T05:10:20.334Z,5.83
2019-03-01T05:12:52.401Z,5.23
2019-03-01T05:15:23.865Z,5.67
2019-03-01T05:17:54.997Z,5.50
2019-03-01T05:20:26.294Z,5.37
2019-03-01T05:22:57.668Z,5.20
2019-03-01T05:25:28.734Z,5.03
2019-03-01T05:27:59.874Z,5.53
2019-03-01T05:30:30.993Z,5.17
2019-03-01T05:33:02.167Z,5.33
2019-03-01T05:35:33.577Z,5.47
2019-03-01T05:38:05.066Z,5.30
2019-03-01T05:40:36.514Z,5.43
2019-03-01T05:43:07.645Z,5.30
2019-03-01T05:45:39.728Z,5.30
2019-03-01T05:48:10.870Z,5.50
2019-03-01T05:50:42.294Z,5.37
2019-03-01T05:53:13.423Z,5.50
2019-03-01T05:55:45.525Z,4.83
2019-03-01T05:58:46.485Z,5.50
2019-03-01T06:01:50.797Z,5.27
2019-03-01T06:04:29.155Z,5.50
2019-03-01T06:07:53.909Z,5.37
2019-03-01T06:10:33.053Z,5.40
2019-03-01T06:13:44.116Z,5.60
2019-03-01T06:16:23.130Z,5.57
2019-03-01T06:19:22.265Z,5.70
2019-03-01T06:22:33.121Z,5.90
2019-03-01T06:25:34.370Z,5.40
2019-03-01T06:28:24.864Z,5.43
2019-03-01T06:31:27.035Z,5.80
2019-03-01T06:34:23.065Z,5.47
2019-03-01T06:37:27.696Z,5.37
2019-03-01T06:40:31.086Z,5.30
2019-03-01T06:43:42.415Z,5.50
2019-03-01T06:46:38.231Z,5.40
2019-03-01T06:49:15.773Z,4.93
2019-03-01T06:51:46.413Z,5.10
2019-03-01T06:54:17.465Z,5.50
2019-03-01T06:56:47.797Z,5.03
2019-03-01T06:59:18.835Z,5.53
2019-03-01T07:01:49.750Z,5.03
2019-03-01T07:04:21.750Z,5.40
2019-03-01T07:06:52.078Z,5.03
2019-03-01T07:09:22.794Z,5.30
2019-03-01T07:11:53.115Z,4.97
2019-03-01T07:14:23.861Z,5.23
2019-03-01T07:16:54.702Z,5.10
2019-03-01T07:19:26.521Z,5.30
2019-03-01T07:21:57.591Z,5.30
2019-03-01T07:24:28.735Z,5.13
2019-03-01T07:26:59.878Z,5.00
2019-03-01T07:29:31.022Z,5.13
2019-03-01T07:32:02.159Z,4.90
2019-03-01T07:34:33.259Z,4.87
2019-03-01T07:37:04.758Z,5.17
2019-03-01T07:39:36.202Z,5.23
2019-03-01T07:42:07.351Z,5.20
2019-03-01T07:44:38.187Z,5.20
2019-03-01T07:47:09.336Z,5.47
2019-03-01T07:49:40.786Z,5.00
2019-03-01T07:52:12.236Z,5.23
2019-03-01T07:54:43.374Z,5.10
2019-03-01T07:57:15.573Z,5.27
2019-03-01T07:59:47.202Z,5.30
2019-03-01T08:02:18.011Z,5.03
2019-03-01T08:04:49.505Z,5.30
2019-03-01T08:07:23.612Z,5.17
2019-03-01T08:09:54.257Z,4.97
2019-03-01T08:12:25.682Z,5.10
2019-03-01T08:14:56.827Z,5.40
2019-03-01T08:17:31.552Z,4.93
2019-03-01T08:20:00.655Z,4.83
2019-03-01T08:22:32.105Z,5.37
2019-03-01T08:25:04.738Z,4.73
2019-03-01T08:27:35.927Z,4.97
2019-03-01T08:30:10.497Z,4.57
2019-03-01T08:32:40.362Z,4.57
2019-03-01T08:35:12.316Z,5.03
2019-03-01T08:37:43.263Z,4.57
2019-03-01T08:40:15.623Z,4.70
2019-03-01T08:42:46.479Z,4.73
2019-03-01T08:45:18.303Z,5.07
2019-03-01T08:47:50.086Z,5.10
2019-03-01T08:50:20.424Z,5.50
2019-03-01T08:52:51.661Z,5.17
2019-03-01T08:55:23.481Z,4.60
2019-03-01T08:57:54.568Z,4.80
2019-03-01T09:00:28.175Z,4.63
2019-03-01T09:03:01.507Z,5.00
2019-03-01T09:05:32.374Z,5.05
2019-03-01T09:08:03.317Z,4.57
2019-03-01T09:10:34.288Z,4.70
2019-03-01T09:13:05.429Z,5.00
2019-03-01T09:15:36.949Z,4.80
2019-03-01T09:18:08.033Z,4.97
2019-03-01T09:20:39.470Z,4.70
2019-03-01T09:23:21.093Z,4.80
2019-03-01T09:25:44.781Z,4.70
2019-03-01T09:28:17.525Z,4.80
2019-03-01T09:30:48.009Z,4.83
2019-03-01T09:33:21.302Z,4.77
2019-03-01T09:36:00.928Z,4.90
2019-03-01T09:38:32.477Z,4.80
2019-03-01T09:41:04.565Z,4.97
2019-03-01T09:43:36.467Z,4.70
2019-03-01T09:46:06.843Z,4.63
2019-03-01T09:48:37.551Z,4.77
2019-03-01T09:51:10.598Z,4.73
2019-03-01T09:53:40.103Z,4.93
2019-03-01T09:56:12.953Z,4.80
2019-03-01T09:58:43.102Z,4.90
2019-03-01T10:01:16.974Z,4.97
2019-03-01T10:03:49.575Z,5.13
2019-03-01T10:06:20.043Z,4.90
2019-03-01T10:08:50.750Z,4.90
2019-03-01T10:11:21.199Z,4.60
2019-03-01T10:13:51.742Z,4.40
2019-03-01T10:16:22.010Z,4.70
2019-03-01T10:18:52.879Z,5.00
2019-03-01T10:21:24.279Z,4.60
2019-03-01T10:23:55.153Z,4.53
2019-03-01T10:26:26.922Z,4.53
2019-03-01T10:28:58.681Z,4.77
2019-03-01T10:31:30.123Z,4.90
2019-03-01T10:34:01.573Z,4.80
2019-03-01T10:36:34.274Z,4.63
2019-03-01T10:39:09.304Z,5.13
2019-03-01T10:41:40.231Z,4.63
2019-03-01T10:44:11.370Z,4.40
2019-03-01T10:46:42.695Z,4.20
2019-03-01T10:49:13.971Z,4.23
2019-03-01T10:51:45.303Z,4.50
2019-03-01T10:54:17.370Z,4.87
2019-03-01T10:56:48.646Z,4.50
2019-03-01T10:59:19.266Z,4.27
2019-03-01T11:01:49.823Z,4.63
2019-03-01T11:04:20.324Z,4.70
2019-03-01T11:06:51.349Z,4.43
2019-03-01T11:09:21.702Z,4.47
2019-03-01T11:11:52.413Z,4.53
2019-03-01T11:14:22.795Z,4.40
2019-03-01T11:16:55.337Z,4.70
2019-03-01T11:19:26.477Z,4.30
2019-03-01T11:21:57.625Z,4.23
2019-03-01T11:24:28.818Z,4.73
2019-03-01T11:27:00.193Z,4.57
2019-03-01T11:29:31.649Z,4.33
2019-03-01T11:32:03.097Z,4.53
2019-03-01T11:34:36.133Z,4.37
2019-03-01T11:37:06.927Z,4.23
2019-03-01T11:39:38.067Z,4.20
2019-03-01T11:42:08.906Z,4.47
2019-03-01T11:44:41.270Z,4.50
2019-03-01T11:47:13.053Z,4.40
2019-03-01T11:49:44.486Z,4.50
2019-03-01T11:52:15.962Z,4.73
2019-03-01T11:54:47.122Z,4.73
2019-03-01T11:57:18.229Z,4.70
2019-03-01T11:59:49.407Z,4.10
2019-03-01T12:02:20.919Z,4.70
2019-03-01T12:04:52.082Z,4.40
2019-03-01T12:07:23.825Z,4.20
2019-03-01T12:09:57.730Z,4.43
2019-03-01T12:12:29.181Z,4.70
2019-03-01T12:15:00.626Z,4.33
2019-03-01T12:17:32.129Z,4.53
2019-03-01T12:20:03.530Z,4.40
2019-03-01T12:22:34.760Z,4.53
2019-03-01T12:25:06.311Z,4.20
2019-03-01T12:27:36.969Z,4.30
2019-03-01T12:30:12.476Z,4.60
2019-03-01T12:32:43.247Z,4.73
2019-03-01T12:35:14.932Z,4.77
2019-03-01T12:37:45.837Z,4.30
2019-03-01T12:40:20.195Z,4.60
2019-03-01T12:42:50.694Z,4.57
2019-03-01T12:45:21.642Z,4.00
2019-03-01T12:47:52.058Z,4.40
2019-03-01T12:50:22.742Z,4.37
2019-03-01T12:52:53.190Z,4.60
2019-03-01T12:55:24.159Z,4.13
2019-03-01T12:57:54.531Z,4.30
2019-03-01T13:00:29.693Z,4.03
2019-03-01T13:03:00.145Z,4.30
2019-03-01T13:05:30.585Z,4.70
2019-03-01T13:08:01.382Z,4.50
2019-03-01T13:10:32.173Z,4.40
2019-03-01T13:13:07.937Z,4.20
2019-03-01T13:15:36.369Z,4.70
2019-03-01T13:18:10.201Z,4.20
2019-03-01T13:20:38.977Z,4.33
2019-03-01T13:23:10.402Z,4.20
2019-03-01T13:25:41.499Z,4.20
2019-03-01T13:28:13.472Z,4.30
2019-03-01T13:30:44.478Z,4.00
2019-03-01T13:33:15.706Z,3.93
2019-03-01T13:35:46.998Z,3.87
2019-03-01T13:38:17.881Z,4.40
2019-03-01T13:40:49.347Z,4.17
2019-03-01T13:43:20.178Z,4.37
2019-03-01T13:45:52.564Z,4.20
2019-03-01T13:48:26.421Z,4.90
2019-03-01T13:50:57.713Z,5.30
2019-03-01T13:53:30.268Z,5.27
2019-03-01T13:56:02.128Z,4.97
2019-03-01T13:58:34.837Z,5.20
2019-03-01T14:01:07.056Z,4.97
2019-03-01T14:03:37.426Z,5.03
2019-03-01T14:06:08.072Z,4.60
2019-03-01T14:08:38.634Z,4.80
2019-03-01T14:11:09.942Z,4.80
2019-03-01T14:13:40.305Z,4.40
2019-03-01T14:16:11.313Z,4.37
2019-03-01T14:18:41.942Z,4.33
2019-03-01T14:21:13.498Z,4.63
2019-03-01T14:23:44.749Z,4.53
2019-03-01T14:26:18.429Z,4.20
2019-03-01T14:28:49.241Z,4.20
2019-03-01T14:31:20.395Z,3.73
2019-03-01T14:33:52.175Z,3.90
2019-03-01T14:36:23.841Z,4.00
2019-03-01T14:38:54.598Z,3.67
2019-03-01T14:41:25.659Z,3.97
2019-03-01T14:43:59.099Z,3.50
2019-03-01T14:46:30.026Z,3.73
2019-03-01T14:49:01.184Z,4.20
2019-03-01T14:51:32.241Z,3.57
2019-03-01T14:54:03.404Z,3.60
2019-03-01T14:56:38.026Z,3.70
2019-03-01T14:59:19.416Z,3.83
2019-03-01T15:02:40.776Z,3.53
2019-03-01T15:05:19.390Z,3.50
2019-03-01T15:07:47.185Z,3.40
2019-03-01T15:10:19.007Z,3.30
2019-03-01T15:12:50.159Z,3.60
2019-03-01T15:15:23.019Z,3.10
2019-03-01T15:17:57.052Z,3.20
2019-03-01T15:20:26.960Z,3.50
2019-03-01T15:22:58.409Z,3.27
2019-03-01T15:25:29.575Z,3.33
2019-03-01T15:28:01.270Z,3.27
2019-03-01T15:30:34.416Z,3.30
2019-03-01T15:33:08.535Z,3.23
2019-03-01T15:35:40.634Z,3.40
2019-03-01T15:38:13.364Z,3.17
2019-03-01T15:40:44.918Z,2.97
2019-03-01T15:43:16.795Z,3.30
2019-03-01T15:45:49.189Z,3.10
2019-03-01T15:48:21.625Z,3.33
2019-03-01T15:50:53.292Z,3.20
2019-03-01T15:53:25.019Z,2.90
2019-03-01T15:55:57.132Z,3.20
2019-03-01T15:58:33.276Z,2.87
2019-03-01T16:01:05.880Z,3.10
2019-03-01T16:03:35.445Z,2.90
2019-03-01T16:06:10.267Z,3.13
2019-03-01T16:08:39.378Z,2.90
2019-03-01T16:11:12.593Z,2.90
2019-03-01T16:13:47.969Z,3.03
2019-03-01T16:16:16.071Z,2.80
2019-03-01T16:18:46.813Z,2.80
2019-03-01T16:21:17.706Z,2.93
2019-03-01T16:23:48.694Z,2.87
2019-03-01T16:26:29.399Z,2.80
2019-03-01T16:28:52.519Z,3.00
2019-03-01T16:31:24.574Z,2.63
2019-03-01T16:33:57.057Z,2.80
2019-03-01T16:36:35.512Z,2.83
2019-03-01T16:39:13.617Z,3.00
2019-03-01T16:41:45.033Z,3.03
2019-03-01T16:44:17.220Z,3.00
2019-03-01T16:46:48.342Z,2.47
2019-03-01T16:49:19.482Z,2.57
2019-03-01T16:51:54.032Z,2.93
2019-03-01T16:54:23.954Z,2.93
2019-03-01T16:56:54.753Z,2.90
2019-03-01T16:59:26.733Z,2.93
2019-03-01T17:01:58.200Z,3.00
2019-03-01T17:04:29.318Z,3.00
2019-03-01T17:07:00.714Z,2.63
2019-03-01T17:09:31.601Z,3.03
2019-03-01T17:12:03.073Z,2.60
2019-03-01T17:14:34.888Z,2.60
2019-03-01T17:17:07.451Z,2.80
2019-03-01T17:19:38.852Z,2.70
2019-03-01T17:22:09.983Z,2.90
2019-03-01T17:24:41.146Z,2.83
2019-03-01T17:27:18.330Z,3.10
2019-03-01T17:29:49.562Z,2.83
2019-03-01T17:32:20.863Z,2.80
2019-03-01T17:34:52.164Z,2.80
2019-03-01T17:37:25.867Z,2.80
2019-03-01T17:39:57.697Z,2.93
2019-03-01T17:42:28.851Z,2.83
2019-03-01T17:45:00.311Z,2.90
2019-03-01T17:47:31.421Z,3.10
2019-03-01T17:50:10.398Z,2.83
2019-03-01T17:52:43.872Z,2.90
2019-03-01T17:55:14.870Z,2.90
2019-03-01T17:57:46.328Z,2.93
2019-03-01T18:00:25.437Z,2.90
2019-03-01T18:02:54.853Z,2.70
2019-03-01T18:05:31.552Z,2.70
2019-03-01T18:08:03.784Z,2.80
2019-03-01T18:10:35.155Z,2.60
2019-03-01T18:13:06.162Z,2.80
2019-03-01T18:15:38.032Z,2.80
2019-03-01T18:18:12.222Z,3.20
2019-03-01T18:20:41.210Z,2.80
2019-03-01T18:23:11.933Z,2.77
2019-03-01T18:25:42.261Z,2.70
2019-03-01T18:28:13.114Z,2.97
2019-03-01T18:30:43.541Z,2.80
2019-03-01T18:33:16.879Z,2.70
2019-03-01T18:35:48.840Z,2.47
2019-03-01T18:38:20.263Z,2.57
2019-03-01T18:40:51.778Z,2.77
2019-03-01T18:43:23.147Z,2.60
2019-03-01T18:45:54.290Z,2.93
2019-03-01T18:48:25.329Z,2.73
2019-03-01T18:50:56.289Z,2.90
2019-03-01T18:53:28.804Z,3.03
2019-03-01T18:56:00.887Z,3.10
2019-03-01T18:58:31.851Z,2.90
2019-03-01T19:01:02.990Z,2.87
2019-03-01T19:03:36.640Z,3.00
2019-03-01T19:06:07.209Z,2.80
2019-03-01T19:08:39.587Z,2.90
2019-03-01T19:11:10.975Z,2.73
2019-03-01T19:13:41.906Z,2.87
2019-03-01T19:16:12.783Z,2.90
2019-03-01T19:18:43.787Z,3.00
2019-03-01T19:21:17.332Z,3.00
2019-03-01T19:23:46.756Z,2.67
2019-03-01T19:26:17.409Z,2.97
2019-03-01T19:28:48.471Z,3.07
2019-03-01T19:31:21.730Z,2.80
2019-03-01T19:33:51.579Z,2.70
2019-03-01T19:36:22.144Z,2.70
2019-03-01T19:38:53.235Z,2.80
2019-03-01T19:41:23.724Z,2.73
2019-03-01T19:43:57.601Z,2.80
2019-03-01T19:46:27.603Z,2.47
2019-03-01T19:48:59.979Z,2.60
2019-03-01T19:51:33.804Z,2.50
2019-03-01T19:54:04.718Z,2.80
2019-03-01T19:56:36.197Z,2.83
2019-03-01T19:59:07.413Z,2.60
2019-03-01T20:01:40.323Z,2.87
2019-03-01T20:04:11.107Z,2.47
2019-03-01T20:06:43.513Z,2.50
2019-03-01T20:09:15.236Z,2.60
2019-03-01T20:11:46.150Z,2.70
2019-03-01T20:14:17.242Z,2.57
2019-03-01T20:16:48.839Z,2.47
2019-03-01T20:19:21.037Z,2.63
2019-03-01T20:21:52.803Z,2.70
2019-03-01T20:24:24.237Z,2.53
2019-03-01T20:26:59.967Z,2.63
2019-03-01T20:29:29.948Z,2.40
2019-03-01T20:32:01.066Z,2.67
2019-03-01T20:34:34.764Z,2.37
2019-03-01T20:37:07.617Z,2.50
2019-03-01T20:39:38.851Z,2.37
2019-03-01T20:42:09.243Z,2.37
2019-03-01T20:44:40.249Z,2.50
2019-03-01T20:47:15.410Z,2.30
2019-03-01T20:49:45.473Z,2.57
2019-03-01T20:52:16.474Z,2.43
2019-03-01T20:54:47.535Z,2.50
2019-03-01T20:57:18.637Z,2.50
2019-03-01T20:59:50.592Z,2.67
2019-03-01T21:02:22.468Z,2.30
2019-03-01T21:04:54.094Z,2.57
2019-03-01T21:07:25.432Z,2.67
2019-03-01T21:09:56.820Z,2.63
2019-03-01T21:12:27.977Z,2.40
2019-03-01T21:15:01.908Z,2.17
2019-03-01T21:17:33.236Z,2.70
2019-03-01T21:20:05.115Z,2.43
2019-03-01T21:22:36.634Z,2.37
2019-03-01T21:25:10.406Z,2.33
2019-03-01T21:27:40.883Z,2.27
2019-03-01T21:30:25.682Z,2.27
2019-03-01T21:32:56.121Z,2.43
2019-03-01T21:35:26.755Z,2.37
2019-03-01T21:37:57.475Z,2.30
2019-03-01T21:40:31.370Z,2.50
2019-03-01T21:43:02.274Z,2.23
2019-03-01T21:45:33.722Z,2.33
2019-03-01T21:48:05.173Z,2.20
2019-03-01T21:50:38.735Z,2.30
2019-03-01T21:53:09.524Z,2.17
2019-03-01T21:55:42.307Z,2.10
2019-03-01T21:58:13.425Z,2.20
2019-03-01T22:00:44.571Z,2.23
2019-03-01T22:03:15.734Z,2.47
2019-03-01T22:05:48.592Z,2.10
2019-03-01T22:08:19.917Z,2.07
2019-03-01T22:10:54.593Z,2.37
2019-03-01T22:13:26.357Z,2.30
2019-03-01T22:16:01.059Z,2.37
2019-03-01T22:18:31.100Z,2.20
2019-03-01T22:21:03.713Z,2.27
2019-03-01T22:23:35.530Z,2.10
2019-03-01T22:26:06.212Z,2.27
2019-03-01T22:28:37.220Z,2.27
2019-03-01T22:31:08.041Z,2.20
2019-03-01T22:33:39.499Z,2.00
2019-03-01T22:36:11.625Z,2.10
2019-03-01T22:38:42.563Z,2.10
2019-03-01T22:41:13.645Z,2.10
2019-03-01T22:43:44.795Z,2.30
2019-03-01T22:46:16.216Z,2.30
2019-03-01T22:48:53.106Z,1.90
2019-03-01T22:51:20.658Z,1.90
2019-03-01T22:53:52.414Z,2.20
2019-03-01T22:56:23.878Z,2.33
2019-03-01T22:58:55.452Z,2.00
2019-03-01T23:01:35.894Z,1.90
2019-03-01T23:04:07.704Z,1.87
2019-03-01T23:06:38.424Z,2.33
2019-03-01T23:09:13.541Z,2.10
2019-03-01T23:11:44.555Z,2.00
2019-03-01T23:14:15.701Z,1.83
2019-03-01T23:16:46.914Z,1.97
2019-03-01T23:19:18.286Z,2.00
2019-03-01T23:21:49.492Z,1.90
2019-03-01T23:24:20.586Z,2.00
2019-03-01T23:26:53.626Z,2.07
2019-03-01T23:29:24.706Z,1.80
2019-03-01T23:31:55.751Z,2.20
2019-03-01T23:34:26.967Z,2.00
2019-03-01T23:37:00.642Z,2.10
2019-03-01T23:39:32.042Z,2.00
2019-03-01T23:42:03.155Z,2.10
2019-03-01T23:44:33.821Z,2.17
2019-03-01T23:47:04.870Z,2.20
2019-03-01T23:49:36.310Z,2.10
2019-03-01T23:52:08.406Z,2.00
2019-03-01T23:54:40.618Z,1.93
2019-03-01T23:57:12.765Z,2.20
2019-03-01T23:59:43.670Z,2.10
